sensor_id;sensor_type;location;lat;lon;timestamp;P1;durP1;ratioP1;P2;durP2;ratioP2
52724;SDS011;38621;52.830;6.914;2023-05-18T00:01:59;5.63;;;1.70;;
52724;SDS011;38621;52.830;6.914;2023-05-18T00:04:25;5.38;;;2.00;;
52724;SDS011;38621;52.830;6.914;2023-05-18T00:06:53;3.65;;;1.50;;
52724;SDS011;38621;52.830;6.914;2023-05-18T00:09:25;3.45;;;1.67;;
52724;SDS011;38621;52.830;6.914;2023-05-18T00:11:51;6.65;;;1.70;;
52724;SDS011;38621;52.830;6.914;2023-05-18T00:14:17;3.80;;;1.85;;
52724;SDS011;38621;52.830;6.914;2023-05-18T00:16:44;7.28;;;1.67;;
52724;SDS011;38621;52.830;6.914;2023-05-18T00:19:10;3.92;;;1.50;;
52724;SDS011;38621;52.830;6.914;2023-05-18T00:21:41;6.47;;;1.88;;
52724;SDS011;38621;52.830;6.914;2023-05-18T00:24:11;4.30;;;2.00;;
52724;SDS011;38621;52.830;6.914;2023-05-18T00:26:38;4.28;;;1.50;;
52724;SDS011;38621;52.830;6.914;2023-05-18T00:29:07;4.57;;;1.77;;
52724;SDS011;38621;52.830;6.914;2023-05-18T00:31:33;4.20;;;1.48;;
52724;SDS011;38621;52.830;6.914;2023-05-18T00:34:01;4.38;;;1.67;;
52724;SDS011;38621;52.830;6.914;2023-05-18T00:36:27;2.88;;;1.20;;
52724;SDS011;38621;52.830;6.914;2023-05-18T00:38:54;2.88;;;1.20;;
52724;SDS011;38621;52.830;6.914;2023-05-18T00:41:19;3.70;;;1.50;;
52724;SDS011;38621;52.830;6.914;2023-05-18T00:43:45;4.30;;;1.55;;
52724;SDS011;38621;52.830;6.914;2023-05-18T00:46:11;6.50;;;1.70;;
52724;SDS011;38621;52.830;6.914;2023-05-18T00:48:37;6.13;;;2.25;;
52724;SDS011;38621;52.830;6.914;2023-05-18T00:51:03;6.07;;;1.70;;
52724;SDS011;38621;52.830;6.914;2023-05-18T00:53:29;4.15;;;1.67;;
52724;SDS011;38621;52.830;6.914;2023-05-18T00:55:57;6.05;;;1.67;;
52724;SDS011;38621;52.830;6.914;2023-05-18T00:58:23;4.72;;;1.48;;
52724;SDS011;38621;52.830;6.914;2023-05-18T01:00:50;2.35;;;1.30;;
52724;SDS011;38621;52.830;6.914;2023-05-18T01:03:16;5.95;;;1.95;;
52724;SDS011;38621;52.830;6.914;2023-05-18T01:05:45;4.57;;;1.42;;
52724;SDS011;38621;52.830;6.914;2023-05-18T01:08:20;5.15;;;1.65;;
52724;SDS011;38621;52.830;6.914;2023-05-18T01:10:58;4.90;;;1.48;;
52724;SDS011;38621;52.830;6.914;2023-05-18T01:13:53;3.30;;;1.40;;
52724;SDS011;38621;52.830;6.914;2023-05-18T01:16:26;2.88;;;2.00;;
52724;SDS011;38621;52.830;6.914;2023-05-18T01:19:22;4.00;;;1.92;;
52724;SDS011;38621;52.830;6.914;2023-05-18T01:21:56;4.25;;;2.10;;
52724;SDS011;38621;52.830;6.914;2023-05-18T01:24:49;5.47;;;1.60;;
52724;SDS011;38621;52.830;6.914;2023-05-18T01:27:22;3.85;;;1.58;;
52724;SDS011;38621;52.830;6.914;2023-05-18T01:29:49;3.95;;;1.45;;
52724;SDS011;38621;52.830;6.914;2023-05-18T01:32:19;2.63;;;1.20;;
52724;SDS011;38621;52.830;6.914;2023-05-18T01:34:46;2.72;;;1.17;;
52724;SDS011;38621;52.830;6.914;2023-05-18T01:37:12;4.85;;;1.90;;
52724;SDS011;38621;52.830;6.914;2023-05-18T01:39:38;4.35;;;1.50;;
52724;SDS011;38621;52.830;6.914;2023-05-18T01:42:06;4.38;;;1.60;;
52724;SDS011;38621;52.830;6.914;2023-05-18T01:44:38;4.03;;;1.67;;
52724;SDS011;38621;52.830;6.914;2023-05-18T01:47:13;6.80;;;1.60;;
52724;SDS011;38621;52.830;6.914;2023-05-18T01:52:28;3.75;;;1.40;;
52724;SDS011;38621;52.830;6.914;2023-05-18T01:55:09;3.15;;;1.40;;
52724;SDS011;38621;52.830;6.914;2023-05-18T01:57:35;3.05;;;1.27;;
52724;SDS011;38621;52.830;6.914;2023-05-18T02:00:03;2.13;;;1.23;;
52724;SDS011;38621;52.830;6.914;2023-05-18T02:02:31;4.30;;;1.48;;
52724;SDS011;38621;52.830;6.914;2023-05-18T02:04:57;4.47;;;1.40;;
52724;SDS011;38621;52.830;6.914;2023-05-18T02:07:23;4.70;;;1.70;;
52724;SDS011;38621;52.830;6.914;2023-05-18T02:09:49;4.68;;;1.73;;
52724;SDS011;38621;52.830;6.914;2023-05-18T02:12:14;3.58;;;1.45;;
52724;SDS011;38621;52.830;6.914;2023-05-18T02:14:40;4.50;;;2.00;;
52724;SDS011;38621;52.830;6.914;2023-05-18T02:17:06;6.30;;;1.73;;
52724;SDS011;38621;52.830;6.914;2023-05-18T02:19:32;5.03;;;1.50;;
52724;SDS011;38621;52.830;6.914;2023-05-18T02:22:02;6.60;;;2.10;;
52724;SDS011;38621;52.830;6.914;2023-05-18T02:24:30;4.07;;;1.50;;
52724;SDS011;38621;52.830;6.914;2023-05-18T02:26:57;3.90;;;1.55;;
52724;SDS011;38621;52.830;6.914;2023-05-18T02:29:23;3.67;;;1.75;;
52724;SDS011;38621;52.830;6.914;2023-05-18T02:31:48;6.90;;;1.70;;
52724;SDS011;38621;52.830;6.914;2023-05-18T02:34:15;4.03;;;1.55;;
52724;SDS011;38621;52.830;6.914;2023-05-18T02:36:41;5.20;;;1.88;;
52724;SDS011;38621;52.830;6.914;2023-05-18T02:39:07;4.43;;;1.90;;
52724;SDS011;38621;52.830;6.914;2023-05-18T02:41:34;3.55;;;1.77;;
52724;SDS011;38621;52.830;6.914;2023-05-18T02:44:04;5.63;;;1.90;;
52724;SDS011;38621;52.830;6.914;2023-05-18T02:46:30;5.43;;;1.88;;
52724;SDS011;38621;52.830;6.914;2023-05-18T02:48:56;6.55;;;2.10;;
52724;SDS011;38621;52.830;6.914;2023-05-18T02:51:23;4.38;;;1.90;;
52724;SDS011;38621;52.830;6.914;2023-05-18T02:53:49;6.15;;;2.47;;
52724;SDS011;38621;52.830;6.914;2023-05-18T02:56:15;3.15;;;1.80;;
52724;SDS011;38621;52.830;6.914;2023-05-18T02:58:44;3.55;;;1.65;;
52724;SDS011;38621;52.830;6.914;2023-05-18T03:01:10;3.97;;;1.80;;
52724;SDS011;38621;52.830;6.914;2023-05-18T03:03:38;4.18;;;1.48;;
52724;SDS011;38621;52.830;6.914;2023-05-18T03:06:06;4.47;;;1.70;;
52724;SDS011;38621;52.830;6.914;2023-05-18T03:08:32;5.25;;;1.95;;
52724;SDS011;38621;52.830;6.914;2023-05-18T03:10:58;4.82;;;2.03;;
52724;SDS011;38621;52.830;6.914;2023-05-18T03:13:24;5.68;;;2.28;;
52724;SDS011;38621;52.830;6.914;2023-05-18T03:15:50;5.10;;;1.90;;
52724;SDS011;38621;52.830;6.914;2023-05-18T03:18:16;5.18;;;1.80;;
52724;SDS011;38621;52.830;6.914;2023-05-18T03:20:43;5.15;;;1.90;;
52724;SDS011;38621;52.830;6.914;2023-05-18T03:23:09;3.88;;;2.10;;
52724;SDS011;38621;52.830;6.914;2023-05-18T03:25:35;2.92;;;1.80;;
52724;SDS011;38621;52.830;6.914;2023-05-18T03:28:03;5.43;;;1.85;;
52724;SDS011;38621;52.830;6.914;2023-05-18T03:30:32;7.28;;;2.63;;
52724;SDS011;38621;52.830;6.914;2023-05-18T03:33:01;5.75;;;2.22;;
52724;SDS011;38621;52.830;6.914;2023-05-18T03:35:27;3.53;;;1.80;;
52724;SDS011;38621;52.830;6.914;2023-05-18T03:37:53;3.60;;;1.67;;
52724;SDS011;38621;52.830;6.914;2023-05-18T03:40:19;4.65;;;1.80;;
52724;SDS011;38621;52.830;6.914;2023-05-18T03:42:45;3.40;;;1.90;;
52724;SDS011;38621;52.830;6.914;2023-05-18T03:45:11;5.45;;;2.10;;
52724;SDS011;38621;52.830;6.914;2023-05-18T03:47:37;4.35;;;2.42;;
52724;SDS011;38621;52.830;6.914;2023-05-18T03:50:03;6.00;;;2.90;;
52724;SDS011;38621;52.830;6.914;2023-05-18T03:52:33;4.53;;;1.90;;
52724;SDS011;38621;52.830;6.914;2023-05-18T03:54:59;3.55;;;1.85;;
52724;SDS011;38621;52.830;6.914;2023-05-18T03:57:28;5.38;;;2.03;;
52724;SDS011;38621;52.830;6.914;2023-05-18T03:59:54;8.98;;;3.30;;
52724;SDS011;38621;52.830;6.914;2023-05-18T04:02:20;5.82;;;2.47;;
52724;SDS011;38621;52.830;6.914;2023-05-18T04:04:46;6.10;;;2.08;;
52724;SDS011;38621;52.830;6.914;2023-05-18T04:07:12;6.13;;;2.03;;
52724;SDS011;38621;52.830;6.914;2023-05-18T04:09:40;5.65;;;2.08;;
52724;SDS011;38621;52.830;6.914;2023-05-18T04:12:07;4.38;;;2.05;;
52724;SDS011;38621;52.830;6.914;2023-05-18T04:14:33;5.13;;;2.22;;
52724;SDS011;38621;52.830;6.914;2023-05-18T04:16:59;3.75;;;1.95;;
52724;SDS011;38621;52.830;6.914;2023-05-18T04:19:31;3.42;;;2.05;;
52724;SDS011;38621;52.830;6.914;2023-05-18T04:21:58;4.45;;;2.88;;
52724;SDS011;38621;52.830;6.914;2023-05-18T04:24:24;6.43;;;2.65;;
52724;SDS011;38621;52.830;6.914;2023-05-18T04:26:51;6.20;;;2.65;;
52724;SDS011;38621;52.830;6.914;2023-05-18T04:29:17;6.35;;;2.90;;
52724;SDS011;38621;52.830;6.914;2023-05-18T04:31:43;4.68;;;2.20;;
52724;SDS011;38621;52.830;6.914;2023-05-18T04:34:12;4.38;;;2.40;;
52724;SDS011;38621;52.830;6.914;2023-05-18T04:36:42;8.23;;;2.20;;
52724;SDS011;38621;52.830;6.914;2023-05-18T04:39:08;4.40;;;2.08;;
52724;SDS011;38621;52.830;6.914;2023-05-18T04:41:35;3.75;;;2.00;;
52724;SDS011;38621;52.830;6.914;2023-05-18T04:44:01;3.17;;;1.90;;
52724;SDS011;38621;52.830;6.914;2023-05-18T04:46:27;6.65;;;2.13;;
52724;SDS011;38621;52.830;6.914;2023-05-18T04:48:53;4.07;;;2.17;;
52724;SDS011;38621;52.830;6.914;2023-05-18T04:51:22;4.18;;;2.20;;
52724;SDS011;38621;52.830;6.914;2023-05-18T04:53:49;6.32;;;2.25;;
52724;SDS011;38621;52.830;6.914;2023-05-18T04:56:15;4.93;;;2.25;;
52724;SDS011;38621;52.830;6.914;2023-05-18T04:58:42;3.63;;;1.95;;
52724;SDS011;38621;52.830;6.914;2023-05-18T05:01:12;4.57;;;2.22;;
52724;SDS011;38621;52.830;6.914;2023-05-18T05:03:42;4.35;;;2.30;;
52724;SDS011;38621;52.830;6.914;2023-05-18T05:06:08;4.05;;;2.28;;
52724;SDS011;38621;52.830;6.914;2023-05-18T05:08:35;5.13;;;3.28;;
52724;SDS011;38621;52.830;6.914;2023-05-18T05:11:01;4.40;;;2.45;;
52724;SDS011;38621;52.830;6.914;2023-05-18T05:13:27;5.40;;;2.45;;
52724;SDS011;38621;52.830;6.914;2023-05-18T05:15:53;3.65;;;2.17;;
52724;SDS011;38621;52.830;6.914;2023-05-18T05:18:19;3.95;;;2.25;;
52724;SDS011;38621;52.830;6.914;2023-05-18T05:20:45;9.32;;;2.50;;
52724;SDS011;38621;52.830;6.914;2023-05-18T05:23:10;6.30;;;2.30;;
52724;SDS011;38621;52.830;6.914;2023-05-18T05:25:36;4.47;;;2.55;;
52724;SDS011;38621;52.830;6.914;2023-05-18T05:28:02;3.25;;;2.00;;
52724;SDS011;38621;52.830;6.914;2023-05-18T05:30:28;5.13;;;2.35;;
52724;SDS011;38621;52.830;6.914;2023-05-18T05:32:53;7.43;;;3.08;;
52724;SDS011;38621;52.830;6.914;2023-05-18T05:35:19;5.13;;;2.10;;
52724;SDS011;38621;52.830;6.914;2023-05-18T05:37:45;3.97;;;2.33;;
52724;SDS011;38621;52.830;6.914;2023-05-18T05:40:11;5.55;;;2.58;;
52724;SDS011;38621;52.830;6.914;2023-05-18T05:42:37;5.28;;;2.50;;
52724;SDS011;38621;52.830;6.914;2023-05-18T05:45:03;6.18;;;3.67;;
52724;SDS011;38621;52.830;6.914;2023-05-18T05:47:29;5.32;;;2.58;;
52724;SDS011;38621;52.830;6.914;2023-05-18T05:49:54;6.45;;;2.60;;
52724;SDS011;38621;52.830;6.914;2023-05-18T05:52:20;5.20;;;2.65;;
52724;SDS011;38621;52.830;6.914;2023-05-18T05:54:46;5.80;;;2.75;;
52724;SDS011;38621;52.830;6.914;2023-05-18T05:57:12;5.28;;;2.25;;
52724;SDS011;38621;52.830;6.914;2023-05-18T05:59:37;5.13;;;2.55;;
52724;SDS011;38621;52.830;6.914;2023-05-18T06:02:03;8.93;;;2.63;;
52724;SDS011;38621;52.830;6.914;2023-05-18T06:04:29;4.97;;;2.20;;
52724;SDS011;38621;52.830;6.914;2023-05-18T06:06:54;4.10;;;2.17;;
52724;SDS011;38621;52.830;6.914;2023-05-18T06:09:20;5.28;;;2.47;;
52724;SDS011;38621;52.830;6.914;2023-05-18T06:11:46;3.65;;;2.22;;
52724;SDS011;38621;52.830;6.914;2023-05-18T06:14:12;4.63;;;2.30;;
52724;SDS011;38621;52.830;6.914;2023-05-18T06:16:37;4.00;;;1.60;;
52724;SDS011;38621;52.830;6.914;2023-05-18T06:19:03;4.85;;;2.00;;
52724;SDS011;38621;52.830;6.914;2023-05-18T06:21:29;5.32;;;2.20;;
52724;SDS011;38621;52.830;6.914;2023-05-18T06:23:55;3.67;;;1.80;;
52724;SDS011;38621;52.830;6.914;2023-05-18T06:26:21;4.60;;;1.67;;
52724;SDS011;38621;52.830;6.914;2023-05-18T06:28:47;4.97;;;1.80;;
52724;SDS011;38621;52.830;6.914;2023-05-18T06:31:13;5.78;;;1.60;;
52724;SDS011;38621;52.830;6.914;2023-05-18T06:33:40;5.75;;;1.83;;
52724;SDS011;38621;52.830;6.914;2023-05-18T06:36:06;4.72;;;1.50;;
52724;SDS011;38621;52.830;6.914;2023-05-18T06:38:32;3.58;;;1.70;;
52724;SDS011;38621;52.830;6.914;2023-05-18T06:40:58;5.03;;;2.03;;
52724;SDS011;38621;52.830;6.914;2023-05-18T06:43:23;4.88;;;2.15;;
52724;SDS011;38621;52.830;6.914;2023-05-18T06:45:51;3.90;;;1.67;;
52724;SDS011;38621;52.830;6.914;2023-05-18T06:48:16;4.40;;;1.48;;
52724;SDS011;38621;52.830;6.914;2023-05-18T06:50:42;4.18;;;1.77;;
52724;SDS011;38621;52.830;6.914;2023-05-18T06:53:07;3.30;;;1.48;;
52724;SDS011;38621;52.830;6.914;2023-05-18T06:55:33;5.63;;;1.67;;
52724;SDS011;38621;52.830;6.914;2023-05-18T06:57:59;4.20;;;1.67;;
52724;SDS011;38621;52.830;6.914;2023-05-18T07:00:26;5.60;;;1.52;;
52724;SDS011;38621;52.830;6.914;2023-05-18T07:02:52;4.18;;;1.50;;
52724;SDS011;38621;52.830;6.914;2023-05-18T07:05:18;4.40;;;1.40;;
52724;SDS011;38621;52.830;6.914;2023-05-18T07:07:43;4.13;;;1.50;;
52724;SDS011;38621;52.830;6.914;2023-05-18T07:10:09;7.15;;;1.55;;
52724;SDS011;38621;52.830;6.914;2023-05-18T07:12:35;4.65;;;1.50;;
52724;SDS011;38621;52.830;6.914;2023-05-18T07:15:01;3.47;;;1.60;;
52724;SDS011;38621;52.830;6.914;2023-05-18T07:17:28;5.30;;;1.85;;
52724;SDS011;38621;52.830;6.914;2023-05-18T07:19:54;5.88;;;1.90;;
52724;SDS011;38621;52.830;6.914;2023-05-18T07:22:19;3.50;;;1.35;;
52724;SDS011;38621;52.830;6.914;2023-05-18T07:24:45;4.25;;;1.50;;
52724;SDS011;38621;52.830;6.914;2023-05-18T07:27:11;4.15;;;1.70;;
52724;SDS011;38621;52.830;6.914;2023-05-18T07:29:36;6.40;;;1.75;;
52724;SDS011;38621;52.830;6.914;2023-05-18T07:32:02;3.22;;;1.40;;
52724;SDS011;38621;52.830;6.914;2023-05-18T07:34:28;4.82;;;1.50;;
52724;SDS011;38621;52.830;6.914;2023-05-18T07:36:54;3.83;;;1.60;;
52724;SDS011;38621;52.830;6.914;2023-05-18T07:39:20;4.28;;;1.50;;
52724;SDS011;38621;52.830;6.914;2023-05-18T07:41:52;2.88;;;1.67;;
52724;SDS011;38621;52.830;6.914;2023-05-18T07:44:18;4.35;;;1.30;;
52724;SDS011;38621;52.830;6.914;2023-05-18T07:46:44;5.38;;;1.50;;
52724;SDS011;38621;52.830;6.914;2023-05-18T07:49:10;5.40;;;1.48;;
52724;SDS011;38621;52.830;6.914;2023-05-18T07:51:36;9.52;;;1.75;;
52724;SDS011;38621;52.830;6.914;2023-05-18T07:54:02;3.70;;;1.60;;
52724;SDS011;38621;52.830;6.914;2023-05-18T07:56:29;5.13;;;1.60;;
52724;SDS011;38621;52.830;6.914;2023-05-18T07:58:55;2.40;;;1.20;;
52724;SDS011;38621;52.830;6.914;2023-05-18T08:01:21;3.55;;;1.50;;
52724;SDS011;38621;52.830;6.914;2023-05-18T08:03:51;8.30;;;1.50;;
52724;SDS011;38621;52.830;6.914;2023-05-18T08:06:18;4.18;;;1.42;;
52724;SDS011;38621;52.830;6.914;2023-05-18T08:08:44;3.95;;;1.65;;
52724;SDS011;38621;52.830;6.914;2023-05-18T08:11:09;5.93;;;1.50;;
52724;SDS011;38621;52.830;6.914;2023-05-18T08:13:35;3.92;;;1.40;;
52724;SDS011;38621;52.830;6.914;2023-05-18T08:16:01;3.45;;;1.42;;
52724;SDS011;38621;52.830;6.914;2023-05-18T08:18:26;4.90;;;1.42;;
52724;SDS011;38621;52.830;6.914;2023-05-18T08:20:52;5.00;;;1.50;;
52724;SDS011;38621;52.830;6.914;2023-05-18T08:23:19;5.18;;;1.15;;
52724;SDS011;38621;52.830;6.914;2023-05-18T08:25:46;3.25;;;1.40;;
52724;SDS011;38621;52.830;6.914;2023-05-18T08:28:12;2.78;;;1.48;;
52724;SDS011;38621;52.830;6.914;2023-05-18T08:30:38;5.15;;;1.60;;
52724;SDS011;38621;52.830;6.914;2023-05-18T08:33:04;6.30;;;1.80;;
52724;SDS011;38621;52.830;6.914;2023-05-18T08:35:29;4.57;;;1.65;;
52724;SDS011;38621;52.830;6.914;2023-05-18T08:37:56;2.67;;;1.30;;
52724;SDS011;38621;52.830;6.914;2023-05-18T08:40:22;3.78;;;1.50;;
52724;SDS011;38621;52.830;6.914;2023-05-18T08:43:11;3.80;;;1.60;;
52724;SDS011;38621;52.830;6.914;2023-05-18T08:45:47;4.47;;;1.75;;
52724;SDS011;38621;52.830;6.914;2023-05-18T08:48:41;3.63;;;1.33;;
52724;SDS011;38621;52.830;6.914;2023-05-18T08:51:10;3.50;;;1.42;;
52724;SDS011;38621;52.830;6.914;2023-05-18T08:53:39;3.75;;;1.58;;
52724;SDS011;38621;52.830;6.914;2023-05-18T08:56:06;3.83;;;1.50;;
52724;SDS011;38621;52.830;6.914;2023-05-18T08:58:35;4.28;;;1.63;;
52724;SDS011;38621;52.830;6.914;2023-05-18T09:01:07;3.60;;;1.60;;
52724;SDS011;38621;52.830;6.914;2023-05-18T09:03:35;4.53;;;1.90;;
52724;SDS011;38621;52.830;6.914;2023-05-18T09:06:02;4.95;;;2.08;;
52724;SDS011;38621;52.830;6.914;2023-05-18T09:08:29;4.40;;;1.67;;
52724;SDS011;38621;52.830;6.914;2023-05-18T09:10:55;4.85;;;1.60;;
52724;SDS011;38621;52.830;6.914;2023-05-18T09:13:22;4.18;;;1.77;;
52724;SDS011;38621;52.830;6.914;2023-05-18T09:15:48;4.97;;;1.80;;
52724;SDS011;38621;52.830;6.914;2023-05-18T09:18:15;3.17;;;1.40;;
52724;SDS011;38621;52.830;6.914;2023-05-18T09:20:41;3.13;;;1.58;;
52724;SDS011;38621;52.830;6.914;2023-05-18T09:23:07;3.00;;;1.60;;
52724;SDS011;38621;52.830;6.914;2023-05-18T09:25:32;4.30;;;1.35;;
52724;SDS011;38621;52.830;6.914;2023-05-18T09:28:01;3.58;;;1.77;;
52724;SDS011;38621;52.830;6.914;2023-05-18T09:30:28;4.45;;;1.70;;
52724;SDS011;38621;52.830;6.914;2023-05-18T09:32:54;3.88;;;1.58;;
52724;SDS011;38621;52.830;6.914;2023-05-18T09:35:20;4.82;;;1.75;;
52724;SDS011;38621;52.830;6.914;2023-05-18T09:37:49;3.65;;;1.63;;
52724;SDS011;38621;52.830;6.914;2023-05-18T09:40:17;6.78;;;1.90;;
52724;SDS011;38621;52.830;6.914;2023-05-18T09:42:44;4.10;;;2.03;;
52724;SDS011;38621;52.830;6.914;2023-05-18T09:45:14;6.43;;;2.20;;
52724;SDS011;38621;52.830;6.914;2023-05-18T09:47:41;5.00;;;2.30;;
52724;SDS011;38621;52.830;6.914;2023-05-18T09:50:07;7.13;;;1.80;;
52724;SDS011;38621;52.830;6.914;2023-05-18T09:52:42;6.38;;;1.83;;
52724;SDS011;38621;52.830;6.914;2023-05-18T09:55:10;5.00;;;1.60;;
52724;SDS011;38621;52.830;6.914;2023-05-18T09:57:39;4.55;;;1.70;;
52724;SDS011;38621;52.830;6.914;2023-05-18T10:00:09;4.93;;;2.10;;
52724;SDS011;38621;52.830;6.914;2023-05-18T10:02:37;6.53;;;1.83;;
52724;SDS011;38621;52.830;6.914;2023-05-18T10:05:17;10.50;;;1.75;;
52724;SDS011;38621;52.830;6.914;2023-05-18T10:07:43;5.32;;;1.70;;
52724;SDS011;38621;52.830;6.914;2023-05-18T10:10:09;5.25;;;2.08;;
52724;SDS011;38621;52.830;6.914;2023-05-18T10:12:37;3.80;;;1.50;;
52724;SDS011;38621;52.830;6.914;2023-05-18T10:15:05;3.28;;;1.52;;
52724;SDS011;38621;52.830;6.914;2023-05-18T10:17:33;4.40;;;1.83;;
52724;SDS011;38621;52.830;6.914;2023-05-18T10:20:01;4.15;;;1.80;;
52724;SDS011;38621;52.830;6.914;2023-05-18T10:22:33;3.83;;;1.73;;
52724;SDS011;38621;52.830;6.914;2023-05-18T10:25:01;3.25;;;1.70;;
52724;SDS011;38621;52.830;6.914;2023-05-18T10:27:28;3.97;;;1.98;;
52724;SDS011;38621;52.830;6.914;2023-05-18T10:29:58;4.32;;;1.70;;
52724;SDS011;38621;52.830;6.914;2023-05-18T10:32:24;4.28;;;1.90;;
52724;SDS011;38621;52.830;6.914;2023-05-18T10:34:51;3.95;;;1.52;;
52724;SDS011;38621;52.830;6.914;2023-05-18T10:37:18;5.43;;;2.17;;
52724;SDS011;38621;52.830;6.914;2023-05-18T10:39:47;5.88;;;1.80;;
52724;SDS011;38621;52.830;6.914;2023-05-18T10:42:16;9.40;;;2.53;;
52724;SDS011;38621;52.830;6.914;2023-05-18T10:44:43;5.00;;;2.40;;
52724;SDS011;38621;52.830;6.914;2023-05-18T10:47:10;3.00;;;1.80;;
52724;SDS011;38621;52.830;6.914;2023-05-18T10:49:38;3.63;;;1.75;;
52724;SDS011;38621;52.830;6.914;2023-05-18T10:52:06;3.15;;;1.90;;
52724;SDS011;38621;52.830;6.914;2023-05-18T10:54:34;5.32;;;1.80;;
52724;SDS011;38621;52.830;6.914;2023-05-18T10:57:00;5.10;;;1.98;;
52724;SDS011;38621;52.830;6.914;2023-05-18T10:59:26;4.10;;;2.28;;
52724;SDS011;38621;52.830;6.914;2023-05-18T11:01:52;2.88;;;1.50;;
52724;SDS011;38621;52.830;6.914;2023-05-18T11:04:22;6.00;;;2.00;;
52724;SDS011;38621;52.830;6.914;2023-05-18T11:06:59;4.10;;;1.67;;
52724;SDS011;38621;52.830;6.914;2023-05-18T11:09:27;3.67;;;1.70;;
52724;SDS011;38621;52.830;6.914;2023-05-18T11:11:57;5.38;;;1.73;;
52724;SDS011;38621;52.830;6.914;2023-05-18T11:14:30;3.65;;;1.75;;
52724;SDS011;38621;52.830;6.914;2023-05-18T11:27:49;4.15;;;1.60;;
52724;SDS011;38621;52.830;6.914;2023-05-18T11:30:26;3.47;;;1.80;;
52724;SDS011;38621;52.830;6.914;2023-05-18T11:41:27;5.10;;;1.92;;
52724;SDS011;38621;52.830;6.914;2023-05-18T11:44:05;4.60;;;1.80;;
52724;SDS011;38621;52.830;6.914;2023-05-18T11:46:39;4.20;;;1.75;;
52724;SDS011;38621;52.830;6.914;2023-05-18T11:49:47;4.10;;;1.60;;
52724;SDS011;38621;52.830;6.914;2023-05-18T11:52:15;3.85;;;1.70;;
52724;SDS011;38621;52.830;6.914;2023-05-18T11:54:47;3.42;;;1.80;;
52724;SDS011;38621;52.830;6.914;2023-05-18T11:57:18;4.28;;;2.03;;
52724;SDS011;38621;52.830;6.914;2023-05-18T11:59:55;4.43;;;1.92;;
52724;SDS011;38621;52.830;6.914;2023-05-18T12:02:25;3.33;;;1.80;;
52724;SDS011;38621;52.830;6.914;2023-05-18T12:04:55;5.22;;;1.70;;
52724;SDS011;38621;52.830;6.914;2023-05-18T12:07:24;3.45;;;1.90;;
52724;SDS011;38621;52.830;6.914;2023-05-18T12:09:56;3.88;;;1.98;;
52724;SDS011;38621;52.830;6.914;2023-05-18T12:12:22;3.53;;;1.85;;
52724;SDS011;38621;52.830;6.914;2023-05-18T12:14:52;3.03;;;1.60;;
52724;SDS011;38621;52.830;6.914;2023-05-18T12:17:21;4.25;;;1.77;;
52724;SDS011;38621;52.830;6.914;2023-05-18T12:19:48;4.60;;;2.05;;
52724;SDS011;38621;52.830;6.914;2023-05-18T12:22:14;3.92;;;1.70;;
52724;SDS011;38621;52.830;6.914;2023-05-18T12:24:41;5.53;;;1.83;;
52724;SDS011;38621;52.830;6.914;2023-05-18T12:27:08;4.70;;;1.80;;
52724;SDS011;38621;52.830;6.914;2023-05-18T12:29:39;3.08;;;1.67;;
52724;SDS011;38621;52.830;6.914;2023-05-18T12:34:33;3.10;;;1.75;;
52724;SDS011;38621;52.830;6.914;2023-05-18T12:36:59;4.07;;;1.70;;
52724;SDS011;38621;52.830;6.914;2023-05-18T12:39:25;3.38;;;1.52;;
52724;SDS011;38621;52.830;6.914;2023-05-18T12:41:51;2.90;;;1.67;;
52724;SDS011;38621;52.830;6.914;2023-05-18T12:44:17;4.50;;;1.77;;
52724;SDS011;38621;52.830;6.914;2023-05-18T12:46:43;3.92;;;1.60;;
52724;SDS011;38621;52.830;6.914;2023-05-18T12:49:08;3.70;;;1.48;;
52724;SDS011;38621;52.830;6.914;2023-05-18T12:51:35;4.97;;;1.90;;
52724;SDS011;38621;52.830;6.914;2023-05-18T12:54:06;3.42;;;1.60;;
52724;SDS011;38621;52.830;6.914;2023-05-18T12:56:47;4.13;;;1.77;;
52724;SDS011;38621;52.830;6.914;2023-05-18T12:59:17;3.88;;;1.77;;
52724;SDS011;38621;52.830;6.914;2023-05-18T13:01:43;4.03;;;1.85;;
52724;SDS011;38621;52.830;6.914;2023-05-18T13:04:10;4.18;;;2.00;;
52724;SDS011;38621;52.830;6.914;2023-05-18T13:06:36;3.70;;;1.80;;
52724;SDS011;38621;52.830;6.914;2023-05-18T13:09:06;4.32;;;1.70;;
52724;SDS011;38621;52.830;6.914;2023-05-18T13:11:32;3.88;;;1.70;;
52724;SDS011;38621;52.830;6.914;2023-05-18T13:14:08;3.15;;;1.70;;
52724;SDS011;38621;52.830;6.914;2023-05-18T13:16:37;4.70;;;1.80;;
52724;SDS011;38621;52.830;6.914;2023-05-18T13:19:06;4.22;;;2.13;;
52724;SDS011;38621;52.830;6.914;2023-05-18T13:21:33;3.20;;;1.65;;
52724;SDS011;38621;52.830;6.914;2023-05-18T13:23:59;3.25;;;1.45;;
52724;SDS011;38621;52.830;6.914;2023-05-18T13:26:25;4.70;;;1.50;;
52724;SDS011;38621;52.830;6.914;2023-05-18T13:28:52;6.30;;;2.08;;
52724;SDS011;38621;52.830;6.914;2023-05-18T13:31:20;5.60;;;1.80;;
52724;SDS011;38621;52.830;6.914;2023-05-18T13:33:46;4.18;;;1.60;;
52724;SDS011;38621;52.830;6.914;2023-05-18T13:36:12;3.80;;;1.80;;
52724;SDS011;38621;52.830;6.914;2023-05-18T13:38:38;4.13;;;1.60;;
52724;SDS011;38621;52.830;6.914;2023-05-18T13:41:05;4.13;;;1.80;;
52724;SDS011;38621;52.830;6.914;2023-05-18T13:43:31;4.05;;;2.05;;
52724;SDS011;38621;52.830;6.914;2023-05-18T13:45:57;3.15;;;1.60;;
52724;SDS011;38621;52.830;6.914;2023-05-18T13:48:23;4.88;;;1.83;;
52724;SDS011;38621;52.830;6.914;2023-05-18T13:50:51;3.30;;;1.50;;
52724;SDS011;38621;52.830;6.914;2023-05-18T13:53:17;3.53;;;1.83;;
52724;SDS011;38621;52.830;6.914;2023-05-18T13:55:43;5.15;;;1.73;;
52724;SDS011;38621;52.830;6.914;2023-05-18T13:58:09;3.72;;;1.75;;
52724;SDS011;38621;52.830;6.914;2023-05-18T14:00:34;3.35;;;1.70;;
52724;SDS011;38621;52.830;6.914;2023-05-18T14:03:00;3.22;;;1.42;;
52724;SDS011;38621;52.830;6.914;2023-05-18T14:05:26;2.97;;;1.60;;
52724;SDS011;38621;52.830;6.914;2023-05-18T14:07:52;3.97;;;1.50;;
52724;SDS011;38621;52.830;6.914;2023-05-18T14:10:18;4.35;;;1.45;;
52724;SDS011;38621;52.830;6.914;2023-05-18T14:12:45;3.30;;;1.40;;
52724;SDS011;38621;52.830;6.914;2023-05-18T14:15:11;3.65;;;1.75;;
52724;SDS011;38621;52.830;6.914;2023-05-18T14:17:43;4.22;;;1.60;;
52724;SDS011;38621;52.830;6.914;2023-05-18T14:20:09;3.75;;;1.63;;
52724;SDS011;38621;52.830;6.914;2023-05-18T14:22:35;4.43;;;1.58;;
52724;SDS011;38621;52.830;6.914;2023-05-18T14:25:01;3.63;;;1.55;;
52724;SDS011;38621;52.830;6.914;2023-05-18T14:27:27;3.40;;;1.30;;
52724;SDS011;38621;52.830;6.914;2023-05-18T14:29:53;4.07;;;1.45;;
52724;SDS011;38621;52.830;6.914;2023-05-18T14:32:19;4.47;;;1.40;;
52724;SDS011;38621;52.830;6.914;2023-05-18T14:34:46;3.95;;;1.65;;
52724;SDS011;38621;52.830;6.914;2023-05-18T14:37:12;3.60;;;1.42;;
52724;SDS011;38621;52.830;6.914;2023-05-18T14:39:38;4.53;;;1.50;;
52724;SDS011;38621;52.830;6.914;2023-05-18T14:42:04;4.10;;;1.50;;
52724;SDS011;38621;52.830;6.914;2023-05-18T14:44:30;3.53;;;1.50;;
52724;SDS011;38621;52.830;6.914;2023-05-18T14:46:56;3.75;;;1.40;;
52724;SDS011;38621;52.830;6.914;2023-05-18T14:49:21;3.58;;;1.50;;
52724;SDS011;38621;52.830;6.914;2023-05-18T14:51:47;4.40;;;1.50;;
52724;SDS011;38621;52.830;6.914;2023-05-18T14:54:13;3.17;;;1.55;;
52724;SDS011;38621;52.830;6.914;2023-05-18T14:56:39;5.50;;;1.52;;
52724;SDS011;38621;52.830;6.914;2023-05-18T14:59:05;3.17;;;1.20;;
52724;SDS011;38621;52.830;6.914;2023-05-18T15:01:30;2.78;;;1.27;;
52724;SDS011;38621;52.830;6.914;2023-05-18T15:03:59;3.15;;;1.23;;
52724;SDS011;38621;52.830;6.914;2023-05-18T15:06:24;3.72;;;1.50;;
52724;SDS011;38621;52.830;6.914;2023-05-18T15:08:50;2.92;;;1.30;;
52724;SDS011;38621;52.830;6.914;2023-05-18T15:11:16;4.05;;;1.40;;
52724;SDS011;38621;52.830;6.914;2023-05-18T15:13:46;5.45;;;1.92;;
52724;SDS011;38621;52.830;6.914;2023-05-18T15:16:13;3.88;;;1.30;;